createdAt,value
2023-02-22T00:00:44.547Z,100531.91
2023-02-22T00:03:15.462Z,100532.75
2023-02-22T00:05:47.607Z,100532.75
2023-02-22T00:08:16.700Z,100520.50
2023-02-22T00:10:44.759Z,100526.84
2023-02-22T00:13:15.783Z,100521.56
2023-02-22T00:15:44.269Z,100527.03
2023-02-22T00:18:14.439Z,100526.22
2023-02-22T00:20:44.559Z,100528.22
2023-02-22T00:23:16.557Z,100531.66
2023-02-22T00:25:44.781Z,100527.81
2023-02-22T00:28:12.515Z,100526.16
2023-02-22T00:30:43.634Z,100525.34
2023-02-22T00:33:12.919Z,100527.38
2023-02-22T00:35:40.756Z,100527.38
2023-02-22T00:38:10.807Z,100517.63
2023-02-22T00:40:40.631Z,100518.00
2023-02-22T00:43:08.566Z,100514.53
2023-02-22T00:45:37.939Z,100509.47
2023-02-22T00:48:07.831Z,100505.81
2023-02-22T00:50:36.489Z,100507.03
2023-02-22T00:53:05.949Z,100509.66
2023-02-22T00:55:37.172Z,100501.09
2023-02-22T00:58:05.676Z,100498.06
2023-02-22T01:00:36.430Z,100489.91
2023-02-22T01:03:05.453Z,100493.34
2023-02-22T01:05:33.392Z,100488.25
2023-02-22T01:08:03.000Z,100485.19
2023-02-22T01:10:33.196Z,100482.72
2023-02-22T01:13:08.507Z,100483.72
2023-02-22T01:15:38.692Z,100484.13
2023-02-22T01:18:07.148Z,100477.19
2023-02-22T01:20:35.031Z,100478.22
2023-02-22T01:23:07.156Z,100474.97
2023-02-22T01:25:36.810Z,100474.31
2023-02-22T01:28:06.552Z,100473.94
2023-02-22T01:30:35.557Z,100469.94
2023-02-22T01:33:05.928Z,100462.59
2023-02-22T01:35:36.517Z,100451.59
2023-02-22T01:38:04.452Z,100453.16
2023-02-22T01:40:34.730Z,100453.38
2023-02-22T01:43:05.802Z,100445.81
2023-02-22T01:45:50.893Z,100441.56
2023-02-22T01:48:25.289Z,100442.56
2023-02-22T01:50:55.974Z,100442.94
2023-02-22T01:53:37.185Z,100430.78
2023-02-22T01:56:05.974Z,100444.31
2023-02-22T01:58:36.349Z,100436.81
2023-02-22T02:01:08.101Z,100444.31
2023-02-22T02:03:39.034Z,100436.63
2023-02-22T02:06:12.354Z,100434.97
2023-02-22T02:08:49.762Z,100431.34
2023-02-22T02:11:20.397Z,100426.25
2023-02-22T02:13:50.913Z,100429.88
2023-02-22T02:16:22.521Z,100426.25
2023-02-22T02:18:50.411Z,100421.16
2023-02-22T02:21:50.164Z,100421.00
2023-02-22T02:24:40.337Z,100415.72
2023-02-22T02:27:19.502Z,100408.81
2023-02-22T02:30:18.639Z,100407.19
2023-02-22T02:33:06.273Z,100401.91
2023-02-22T02:35:47.761Z,100395.00
2023-02-22T02:38:27.058Z,100397.84
2023-02-22T02:41:05.128Z,100403.13
2023-02-22T02:43:40.391Z,100392.75
2023-02-22T02:46:13.391Z,100388.47
2023-02-22T02:48:48.132Z,100379.16
2023-02-22T02:51:18.467Z,100384.97
2023-02-22T02:53:51.713Z,100382.16
2023-02-22T02:56:19.511Z,100374.66
2023-02-22T02:58:50.173Z,100373.81
2023-02-22T03:01:33.858Z,100368.53
2023-02-22T03:04:15.110Z,100359.66
2023-02-22T03:07:20.056Z,100361.63
2023-02-22T03:10:00.635Z,100351.91
2023-02-22T03:12:40.147Z,100345.38
2023-02-22T03:15:21.846Z,100352.13
2023-02-22T03:17:58.232Z,100351.50
2023-02-22T03:20:32.499Z,100341.94
2023-02-22T03:23:06.308Z,100339.72
2023-02-22T03:25:39.539Z,100338.09
2023-02-22T03:28:12.029Z,100335.63
2023-02-22T03:30:43.969Z,100331.56
2023-02-22T03:33:20.775Z,100336.81
2023-02-22T03:35:56.951Z,100325.03
2023-02-22T03:38:29.276Z,100324.03
2023-02-22T03:41:01.797Z,100318.13
2023-02-22T03:43:33.808Z,100315.50
2023-02-22T03:46:03.708Z,100312.22
2023-02-22T03:48:39.229Z,100306.97
2023-02-22T03:51:08.448Z,100304.53
2023-02-22T03:53:37.395Z,100304.28
2023-02-22T03:56:09.272Z,100307.34
2023-02-22T03:58:39.749Z,100304.72
2023-02-22T04:01:07.554Z,100305.09
2023-02-22T04:03:35.603Z,100294.56
2023-02-22T04:06:03.731Z,100298.19
2023-02-22T04:08:32.754Z,100292.13
2023-02-22T04:11:01.690Z,100289.69
2023-02-22T04:13:29.465Z,100280.94
2023-02-22T04:15:57.150Z,100282.75
2023-02-22T04:18:25.241Z,100281.16
2023-02-22T04:20:52.923Z,100283.16
2023-02-22T04:23:20.647Z,100276.06
2023-02-22T04:25:50.255Z,100274.25
2023-02-22T04:28:18.096Z,100266.81
2023-02-22T04:30:45.898Z,100270.59
2023-02-22T04:33:14.903Z,100278.50
2023-02-22T04:35:42.666Z,100262.66
2023-02-22T04:38:10.622Z,100263.91
2023-02-22T04:40:38.937Z,100258.81
2023-02-22T04:43:07.987Z,100256.19
2023-02-22T04:45:35.998Z,100262.47
2023-02-22T04:48:04.345Z,100258.22
2023-02-22T04:50:32.265Z,100262.47
2023-02-22T04:52:59.912Z,100258.22
2023-02-22T04:55:28.518Z,100255.56
2023-02-22T04:57:56.632Z,100251.31
2023-02-22T05:00:25.785Z,100247.69
2023-02-22T05:02:54.015Z,100252.28
2023-02-22T05:05:22.752Z,100253.13
2023-02-22T05:07:51.827Z,100243.44
2023-02-22T05:10:19.995Z,100247.03
2023-02-22T05:12:47.838Z,100249.88
2023-02-22T05:15:18.857Z,100234.06
2023-02-22T05:17:48.192Z,100235.88
2023-02-22T05:20:23.164Z,100224.34
2023-02-22T05:22:51.967Z,100224.75
2023-02-22T05:25:21.415Z,100223.75
2023-02-22T05:27:52.755Z,100211.38
2023-02-22T05:30:23.601Z,100215.41
2023-02-22T05:32:53.841Z,100234.47
2023-02-22T05:35:23.027Z,100242.53
2023-02-22T05:37:52.051Z,100234.03
2023-02-22T05:40:21.085Z,100231.38
2023-02-22T05:42:49.181Z,100228.75
2023-02-22T05:45:19.190Z,100226.94
2023-02-22T05:47:47.291Z,100215.59
2023-02-22T05:50:17.185Z,100214.78
2023-02-22T05:52:44.999Z,100222.28
2023-02-22T05:55:15.178Z,100220.47
2023-02-22T05:57:43.362Z,100217.22
2023-02-22T06:00:16.543Z,100209.31
2023-02-22T06:02:44.722Z,100205.88
2023-02-22T06:05:12.518Z,100203.03
2023-02-22T06:07:41.781Z,100204.88
2023-02-22T06:10:10.060Z,100199.81
2023-02-22T06:12:37.734Z,100193.53
2023-02-22T06:15:05.793Z,100198.78
2023-02-22T06:17:33.992Z,100188.47
2023-02-22T06:20:01.668Z,100177.13
2023-02-22T06:22:29.637Z,100186.66
2023-02-22T06:24:59.277Z,100177.72
2023-02-22T06:27:26.732Z,100192.97
2023-02-22T06:29:54.372Z,100179.34
2023-02-22T06:32:22.433Z,100183.00
2023-02-22T06:34:50.089Z,100191.91
2023-02-22T06:37:17.775Z,100187.81
2023-02-22T06:39:45.937Z,100189.03
2023-02-22T06:42:15.819Z,100201.19
2023-02-22T06:44:43.529Z,100199.13
2023-02-22T06:47:11.854Z,100202.75
2023-02-22T06:49:39.770Z,100207.00
2023-02-22T06:52:08.301Z,100195.66
2023-02-22T06:54:36.842Z,100194.66
2023-02-22T06:57:04.510Z,100198.31
2023-02-22T06:59:33.559Z,100190.41
2023-02-22T07:02:04.533Z,100183.72
2023-02-22T07:04:32.204Z,100180.25
2023-02-22T07:07:00.053Z,100183.72
2023-02-22T07:09:28.224Z,100188.97
2023-02-22T07:11:56.101Z,100191.78
2023-02-22T07:14:23.781Z,100193.41
2023-02-22T07:16:53.102Z,100198.50
2023-02-22T07:19:21.069Z,100201.94
2023-02-22T07:21:48.949Z,100196.69
2023-02-22T07:24:16.828Z,100203.56
2023-02-22T07:26:44.844Z,100206.81
2023-02-22T07:29:12.501Z,100198.91
2023-02-22T07:31:40.784Z,100189.03
2023-02-22T07:34:09.805Z,100193.91
2023-02-22T07:36:37.439Z,100191.25
2023-02-22T07:44:46.129Z,100188.88
2023-02-22T07:47:13.776Z,100188.50
2023-02-22T07:49:42.775Z,100186.50
2023-02-22T07:52:12.492Z,100181.66
2023-02-22T07:54:39.984Z,100188.41
2023-02-22T07:57:07.672Z,100194.28
2023-02-22T07:59:35.574Z,100198.38
2023-02-22T08:02:03.235Z,100189.28
2023-02-22T08:04:30.891Z,100191.31
2023-02-22T08:07:00.120Z,100194.19
2023-02-22T08:09:27.905Z,100185.94
2023-02-22T08:11:55.651Z,100187.78
2023-02-22T08:14:23.639Z,100180.13
2023-02-22T08:16:51.331Z,100190.72
2023-02-22T08:19:18.993Z,100181.38
2023-02-22T08:21:47.009Z,100190.34
2023-02-22T08:24:16.022Z,100193.84
2023-02-22T08:26:46.247Z,100187.78
2023-02-22T08:29:14.779Z,100184.56
2023-02-22T08:31:42.486Z,100178.50
2023-02-22T08:34:10.164Z,100176.09
2023-02-22T08:36:43.376Z,100176.75
2023-02-22T08:39:11.429Z,100170.66
2023-02-22T08:41:40.485Z,100180.25
2023-02-22T08:44:08.697Z,100172.34
2023-02-22T08:46:36.486Z,100179.28
2023-02-22T08:49:04.162Z,100180.91
2023-02-22T08:51:36.396Z,100171.78
2023-02-22T08:54:06.737Z,100173.44
2023-02-22T08:56:34.476Z,100183.81
2023-02-22T08:59:03.553Z,100174.06
2023-02-22T09:01:33.589Z,100169.63
2023-02-22T09:04:02.158Z,100172.25
2023-02-22T09:06:30.545Z,100170.47
2023-02-22T09:08:58.261Z,100172.50
2023-02-22T09:11:25.935Z,100170.66
2023-02-22T09:13:54.007Z,100162.13
2023-02-22T09:16:23.588Z,100157.84
2023-02-22T09:18:51.401Z,100161.91
2023-02-22T09:21:19.629Z,100157.81
2023-02-22T09:23:47.922Z,100164.31
2023-02-22T09:26:16.637Z,100160.25
2023-02-22T09:28:45.048Z,100172.03
2023-02-22T09:31:13.362Z,100179.53
2023-02-22T09:33:42.553Z,100178.13
2023-02-22T09:36:11.284Z,100173.06
2023-02-22T09:38:38.932Z,100180.16
2023-02-22T09:41:15.596Z,100168.38
2023-02-22T09:43:49.291Z,100176.50
2023-02-22T09:46:28.120Z,100177.69
2023-02-22T09:49:05.173Z,100171.97
2023-02-22T09:51:40.630Z,100179.28
2023-02-22T09:54:20.648Z,100167.47
2023-02-22T09:56:51.669Z,100180.88
2023-02-22T09:59:26.984Z,100172.53
2023-02-22T10:02:00.985Z,100173.97
2023-02-22T10:04:42.472Z,100177.00
2023-02-22T10:07:19.622Z,100173.94
2023-02-22T10:09:49.872Z,100178.00
2023-02-22T10:12:30.080Z,100180.00
2023-02-22T10:15:37.452Z,100173.28
2023-02-22T10:18:37.058Z,100168.97
2023-02-22T10:21:14.276Z,100172.44
2023-02-22T10:23:50.718Z,100177.09
2023-02-22T10:26:23.606Z,100167.72
2023-02-22T10:28:56.641Z,100172.59
2023-02-22T10:31:31.163Z,100165.66
2023-02-22T10:34:03.564Z,100176.19
2023-02-22T10:36:34.359Z,100168.41
2023-02-22T10:39:13.566Z,100169.22
2023-02-22T10:41:46.157Z,100166.09
2023-02-22T10:44:13.951Z,100172.38
2023-02-22T10:46:43.020Z,100167.81
2023-02-22T10:49:17.029Z,100171.84
2023-02-22T10:51:47.053Z,100179.53
2023-02-22T10:54:27.251Z,100161.97
2023-02-22T10:56:57.288Z,100170.47
2023-02-22T10:59:30.722Z,100163.47
2023-02-22T11:01:58.523Z,100155.31
2023-02-22T11:04:26.339Z,100172.31
2023-02-22T11:07:12.216Z,100163.72
2023-02-22T11:09:50.155Z,100168.16
2023-02-22T11:12:21.718Z,100173.03
2023-02-22T11:14:49.544Z,100175.00
2023-02-22T11:17:25.656Z,100167.66
2023-02-22T11:19:53.433Z,100176.56
2023-02-22T11:22:26.668Z,100173.06
2023-02-22T11:24:58.016Z,100172.44
2023-02-22T11:27:32.098Z,100174.22
2023-02-22T11:30:13.691Z,100170.56
2023-02-22T11:32:47.560Z,100167.47
2023-02-22T11:35:21.543Z,100168.28
2023-02-22T11:37:52.580Z,100164.81
2023-02-22T11:40:22.755Z,100162.59
2023-02-22T11:43:08.215Z,100181.75
2023-02-22T11:45:37.388Z,100166.44
2023-02-22T11:48:09.180Z,100165.44
2023-02-22T11:50:54.802Z,100163.78
2023-02-22T11:53:30.804Z,100160.13
2023-02-22T11:56:13.872Z,100156.44
2023-02-22T11:58:48.275Z,100160.47
2023-02-22T12:01:27.793Z,100158.19
2023-02-22T12:04:23.849Z,100160.41
2023-02-22T12:07:04.790Z,100156.50
2023-02-22T12:09:42.283Z,100164.25
2023-02-22T12:12:24.565Z,100159.53
2023-02-22T12:15:01.759Z,100157.44
2023-02-22T12:17:59.349Z,100158.06
2023-02-22T12:20:39.747Z,100153.94
2023-02-22T12:23:19.496Z,100152.44
2023-02-22T12:26:05.679Z,100148.31
2023-02-22T12:28:39.216Z,100151.56
2023-02-22T12:31:21.093Z,100153.97
2023-02-22T12:34:01.031Z,100150.66
2023-02-22T12:36:36.516Z,100159.19
2023-02-22T12:39:26.103Z,100149.38
2023-02-22T12:41:56.386Z,100155.88
2023-02-22T12:44:29.568Z,100142.16
2023-02-22T12:47:00.590Z,100156.25
2023-02-22T12:49:32.560Z,100153.97
2023-02-22T12:52:20.826Z,100156.81
2023-02-22T12:54:57.264Z,100157.41
2023-02-22T12:57:37.758Z,100156.94
2023-02-22T13:00:12.580Z,100165.53
2023-02-22T13:02:46.415Z,100170.81
2023-02-22T13:05:17.756Z,100165.06
2023-02-22T13:07:59.782Z,100164.63
2023-02-22T13:11:00.008Z,100171.78
2023-02-22T13:13:38.013Z,100170.50
2023-02-22T13:16:16.000Z,100172.72
2023-02-22T13:18:50.831Z,100171.66
2023-02-22T13:21:25.070Z,100173.88
2023-02-22T13:24:04.017Z,100168.56
2023-02-22T13:26:36.938Z,100179.78
2023-02-22T13:29:11.792Z,100177.72
2023-02-22T13:32:02.613Z,100177.72
2023-02-22T13:35:03.288Z,100172.16
2023-02-22T13:38:10.806Z,100172.16
2023-02-22T13:40:57.280Z,100181.19
2023-02-22T13:43:38.983Z,100177.72
2023-02-22T13:46:30.490Z,100174.22
2023-02-22T13:49:17.213Z,100181.38
2023-02-22T13:51:49.331Z,100179.34
2023-02-22T13:54:23.233Z,100189.16
2023-02-22T13:56:52.617Z,100181.63
2023-02-22T13:59:27.245Z,100189.34
2023-02-22T14:01:58.126Z,100183.03
2023-02-22T14:04:46.774Z,100188.34
2023-02-22T14:07:57.841Z,100183.22
2023-02-22T14:10:45.169Z,100195.13
2023-02-22T14:13:14.753Z,100194.75
2023-02-22T14:16:20.120Z,100193.94
2023-02-22T14:18:52.079Z,100191.97
2023-02-22T14:21:21.675Z,100197.50
2023-02-22T14:23:51.252Z,100181.88
2023-02-22T14:26:24.103Z,100195.72
2023-02-22T14:28:55.410Z,100199.41
2023-02-22T14:31:35.874Z,100198.25
2023-02-22T14:34:10.061Z,100191.78
2023-02-22T14:36:43.702Z,100201.59
2023-02-22T14:39:18.817Z,100206.06
2023-02-22T14:41:53.956Z,100206.53
2023-02-22T14:44:28.951Z,100201.22
2023-02-22T14:47:02.632Z,100205.34
2023-02-22T14:49:37.548Z,100205.78
2023-02-22T14:52:16.142Z,100206.16
2023-02-22T14:54:53.473Z,100202.13
2023-02-22T14:57:27.918Z,100201.06
2023-02-22T15:00:19.624Z,100193.94
2023-02-22T15:02:50.027Z,100188.69
2023-02-22T15:05:20.818Z,100191.13
2023-02-22T15:07:54.609Z,100189.84
2023-02-22T15:10:26.936Z,100189.84
2023-02-22T15:13:09.193Z,100191.50
2023-02-22T15:15:39.440Z,100185.97
2023-02-22T15:18:22.187Z,100188.38
2023-02-22T15:20:56.110Z,100189.41
2023-02-22T15:23:29.823Z,100192.88
2023-02-22T15:25:57.980Z,100189.41
2023-02-22T15:28:31.272Z,100194.72
2023-02-22T15:31:23.424Z,100200.03
2023-02-22T15:33:53.178Z,100195.78
2023-02-22T15:36:28.062Z,100202.13
2023-02-22T15:38:57.305Z,100196.66
2023-02-22T15:41:31.528Z,100202.16
2023-02-22T15:44:07.971Z,100201.22
2023-02-22T15:46:42.233Z,100205.34
2023-02-22T15:49:23.549Z,100204.38
2023-02-22T15:52:04.693Z,100204.03
2023-02-22T15:54:41.978Z,100209.91
2023-02-22T15:57:10.410Z,100212.66
2023-02-22T15:59:44.789Z,100223.03
2023-02-22T16:02:32.393Z,100213.47
2023-02-22T16:10:51.186Z,100217.56
2023-02-22T16:13:32.891Z,100217.56
2023-02-22T16:16:02.969Z,100212.13
2023-02-22T16:18:34.359Z,100222.50
2023-02-22T16:21:04.939Z,100222.50
2023-02-22T16:23:45.434Z,100216.81
2023-02-22T16:26:28.309Z,100223.16
2023-02-22T16:28:59.312Z,100231.13
2023-02-22T16:31:29.395Z,100221.31
2023-02-22T16:33:57.212Z,100226.84
2023-02-22T16:36:39.152Z,100224.19
2023-02-22T16:39:09.997Z,100218.09
2023-02-22T16:41:37.992Z,100221.53
2023-02-22T16:44:07.690Z,100219.28
2023-02-22T16:46:36.620Z,100227.47
2023-02-22T16:49:05.000Z,100225.84
2023-02-22T16:51:40.175Z,100234.84
2023-02-22T16:54:12.760Z,100238.94
2023-02-22T16:56:41.971Z,100236.53
2023-02-22T16:59:12.354Z,100228.78
2023-02-22T17:01:40.030Z,100231.06
2023-02-22T17:04:15.342Z,100232.69
2023-02-22T17:06:43.107Z,100234.13
2023-02-22T17:09:12.193Z,100231.50
2023-02-22T17:11:40.644Z,100245.97
2023-02-22T17:14:08.430Z,100249.66
2023-02-22T17:16:36.095Z,100248.03
2023-02-22T17:19:05.593Z,100250.91
2023-02-22T17:21:34.000Z,100254.00
2023-02-22T17:24:01.648Z,100259.53
2023-02-22T17:26:31.248Z,100262.97
2023-02-22T17:28:58.904Z,100268.69
2023-02-22T17:31:29.376Z,100269.31
2023-02-22T17:34:02.603Z,100256.31
2023-02-22T17:36:30.748Z,100273.81
2023-02-22T17:38:59.481Z,100266.03
2023-02-22T17:41:27.948Z,100269.31
2023-02-22T17:43:58.014Z,100277.84
2023-02-22T17:46:26.503Z,100270.13
2023-02-22T17:48:55.441Z,100273.81
2023-02-22T17:51:24.981Z,100276.66
2023-02-22T17:53:53.297Z,100281.13
2023-02-22T17:56:22.125Z,100277.84
2023-02-22T17:58:54.078Z,100278.88
2023-02-22T18:01:27.367Z,100288.84
2023-02-22T18:03:56.171Z,100288.03
2023-02-22T18:06:27.231Z,100287.56
2023-02-22T18:08:56.851Z,100284.94
2023-02-22T18:11:26.216Z,100289.59
2023-02-22T18:13:54.442Z,100284.50
2023-02-22T18:16:22.280Z,100287.38
2023-02-22T18:18:51.385Z,100287.16
2023-02-22T18:21:19.288Z,100289.22
2023-02-22T18:23:47.299Z,100284.72
2023-02-22T18:26:16.884Z,100277.78
2023-02-22T18:28:45.020Z,100278.16
2023-02-22T18:31:15.113Z,100281.63
2023-02-22T18:33:43.440Z,100278.97
2023-02-22T18:36:13.734Z,100287.97
2023-02-22T18:38:43.306Z,100281.84
2023-02-22T18:41:12.085Z,100279.59
2023-02-22T18:43:40.336Z,100285.69
2023-02-22T18:46:09.660Z,100276.94
2023-02-22T18:48:37.822Z,100285.09
2023-02-22T18:51:10.017Z,100287.75
2023-02-22T18:53:40.797Z,100285.09
2023-02-22T18:56:11.128Z,100280.63
2023-02-22T18:58:39.686Z,100277.97
2023-02-22T19:01:08.093Z,100282.25
2023-02-22T19:03:38.349Z,100280.19
2023-02-22T19:06:08.945Z,100279.94
2023-02-22T19:08:39.763Z,100282.41
2023-02-22T19:11:10.896Z,100278.50
2023-02-22T19:13:39.462Z,100284.81
2023-02-22T19:16:08.348Z,100280.34
2023-02-22T19:18:36.250Z,100285.88
2023-02-22T19:21:08.822Z,100282.19
2023-02-22T19:23:38.138Z,100282.97
2023-02-22T19:26:09.485Z,100270.75
2023-02-22T19:28:38.563Z,100267.88
2023-02-22T19:31:17.401Z,100274.22
2023-02-22T19:33:47.273Z,100276.06
2023-02-22T19:36:18.602Z,100284.25
2023-02-22T19:38:46.907Z,100278.13
2023-02-22T19:41:18.068Z,100280.97
2023-02-22T19:43:48.645Z,100282.03
2023-02-22T19:46:17.905Z,100276.94
2023-02-22T19:48:46.010Z,100287.53
2023-02-22T19:51:15.118Z,100281.44
2023-02-22T19:53:44.475Z,100278.16
2023-02-22T19:58:46.266Z,100281.84
2023-02-22T20:01:18.279Z,100280.25
2023-02-22T20:03:46.186Z,100280.25
2023-02-22T20:06:16.523Z,100278.63
2023-02-22T20:08:44.402Z,100279.19
2023-02-22T20:11:13.054Z,100278.81
2023-02-22T20:13:41.772Z,100276.56
2023-02-22T20:16:11.029Z,100280.25
2023-02-22T20:18:40.042Z,100278.41
2023-02-22T20:21:09.486Z,100274.94
2023-02-22T20:23:40.347Z,100274.13
2023-02-22T20:26:16.186Z,100273.31
2023-02-22T20:28:44.056Z,100283.09
2023-02-22T20:31:13.714Z,100286.56
2023-02-22T20:33:43.151Z,100284.28
2023-02-22T20:36:12.850Z,100276.56
2023-02-22T20:38:40.450Z,100283.28
2023-02-22T20:41:09.220Z,100286.94
2023-02-22T20:43:37.724Z,100282.28
2023-02-22T20:46:06.363Z,100294.13
2023-02-22T20:48:35.464Z,100289.88
2023-02-22T20:51:09.419Z,100287.41
2023-02-22T20:53:39.304Z,100292.72
2023-02-22T20:56:07.757Z,100290.50
2023-02-22T20:58:35.900Z,100286.81
2023-02-22T21:01:07.591Z,100290.06
2023-02-22T21:03:36.773Z,100288.44
2023-02-22T21:06:07.561Z,100286.41
2023-02-22T21:08:36.656Z,100292.53
2023-02-22T21:11:04.766Z,100286.41
2023-02-22T21:13:32.432Z,100289.63
2023-02-22T21:16:00.587Z,100286.75
2023-02-22T21:18:28.246Z,100289.22
2023-02-22T21:20:55.897Z,100284.72
2023-02-22T21:23:25.254Z,100275.75
2023-02-22T21:25:53.543Z,100285.31
2023-02-22T21:28:21.754Z,100291.22
2023-02-22T21:30:50.244Z,100292.03
2023-02-22T21:33:18.008Z,100290.19
2023-02-22T21:35:47.150Z,100286.28
2023-02-22T21:38:15.461Z,100296.88
2023-02-22T21:40:46.675Z,100297.50
2023-02-22T21:43:14.346Z,100292.41
2023-02-22T21:45:42.297Z,100289.75
2023-02-22T21:48:09.920Z,100291.59
2023-02-22T21:50:38.163Z,100287.31
2023-02-22T21:53:07.186Z,100291.00
2023-02-22T21:55:35.159Z,100289.16
2023-02-22T21:58:04.174Z,100287.53
2023-02-22T22:00:38.319Z,100287.53
2023-02-22T22:03:20.272Z,100292.03
2023-02-22T22:05:49.210Z,100295.69
2023-02-22T22:08:20.169Z,100288.78
2023-02-22T22:10:55.401Z,100285.53
2023-02-22T22:13:25.421Z,100288.78
2023-02-22T22:15:53.130Z,100283.09
2023-02-22T22:18:20.990Z,100281.47
2023-02-22T22:20:51.806Z,100287.00
2023-02-22T22:23:19.501Z,100289.63
2023-02-22T22:25:47.766Z,100282.72
2023-02-22T22:28:15.921Z,100287.22
2023-02-22T22:30:44.981Z,100276.63
2023-02-22T22:33:13.157Z,100279.25
2023-02-22T22:35:41.758Z,100275.81
2023-02-22T22:38:09.788Z,100283.94
2023-02-22T22:40:39.585Z,100281.31
2023-02-22T22:43:07.262Z,100283.75
2023-02-22T22:45:34.914Z,100281.09
2023-02-22T22:48:05.096Z,100281.09
2023-02-22T22:50:33.454Z,100277.63
2023-02-22T22:53:01.100Z,100282.09
2023-02-22T22:55:29.273Z,100279.47
2023-02-22T22:57:56.920Z,100284.56
2023-02-22T23:00:32.844Z,100289.47
2023-02-22T23:03:00.600Z,100286.81
2023-02-22T23:05:29.867Z,100286.81
2023-02-22T23:08:05.228Z,100296.00
2023-02-22T23:10:33.255Z,100294.38
2023-02-22T23:13:00.935Z,100291.75
2023-02-22T23:15:29.118Z,100293.00
2023-02-22T23:17:59.114Z,100293.81
2023-02-22T23:20:27.553Z,100286.06
2023-02-22T23:22:58.444Z,100288.13
2023-02-22T23:25:26.095Z,100291.00
2023-02-22T23:27:54.962Z,100292.81
2023-02-22T23:30:22.928Z,100289.38
2023-02-22T23:32:50.581Z,100284.25
2023-02-22T23:35:18.996Z,100277.19
2023-02-22T23:37:53.498Z,100290.59
2023-02-22T23:40:25.818Z,100293.88
2023-02-22T23:42:55.328Z,100291.22
2023-02-22T23:45:24.394Z,100297.50
2023-02-22T23:47:55.366Z,100293.63
2023-02-22T23:50:24.724Z,100294.66
2023-02-22T23:52:59.849Z,100297.09
2023-02-22T23:55:31.495Z,100300.78
2023-02-22T23:58:01.167Z,100302.81
